createdAt,value
2023-03-03T00:01:00.731Z,5.16
2023-03-03T00:03:27.561Z,5.15
2023-03-03T00:05:54.311Z,5.39
2023-03-03T00:08:21.416Z,5.18
2023-03-03T00:10:47.988Z,5.18
2023-03-03T00:13:24.525Z,5.24
2023-03-03T00:15:52.126Z,5.17
2023-03-03T00:18:31.278Z,5.20
2023-03-03T00:21:01.136Z,5.18
2023-03-03T00:23:36.066Z,5.19
2023-03-03T00:26:06.322Z,5.16
2023-03-03T00:28:44.880Z,5.20
2023-03-03T00:31:17.763Z,5.17
2023-03-03T00:33:50.690Z,5.16
2023-03-03T00:36:21.817Z,5.16
2023-03-03T00:38:49.313Z,5.11
2023-03-03T00:41:37.525Z,5.22
2023-03-03T00:44:29.544Z,5.23
2023-03-03T00:46:56.924Z,5.12
2023-03-03T00:49:27.048Z,5.13
2023-03-03T00:51:54.020Z,5.09
2023-03-03T00:54:20.452Z,5.09
2023-03-03T00:56:46.895Z,5.09
2023-03-03T00:59:15.837Z,5.10
2023-03-03T01:01:42.412Z,5.06
2023-03-03T01:04:08.879Z,5.04
2023-03-03T01:06:37.706Z,5.05
2023-03-03T01:09:06.777Z,5.03
2023-03-03T01:11:33.292Z,5.03
2023-03-03T01:13:59.850Z,5.03
2023-03-03T01:16:26.409Z,5.02
2023-03-03T01:18:52.867Z,5.01
2023-03-03T01:21:19.340Z,4.99
2023-03-03T01:23:45.866Z,4.98
2023-03-03T01:26:12.433Z,4.95
2023-03-03T01:28:38.929Z,4.93
2023-03-03T01:31:06.365Z,4.92
2023-03-03T01:33:34.400Z,4.91
2023-03-03T01:36:01.098Z,4.90
2023-03-03T01:38:28.048Z,4.91
2023-03-03T01:40:55.797Z,5.12
2023-03-03T01:43:22.796Z,4.92
2023-03-03T01:45:49.318Z,4.88
2023-03-03T01:48:31.366Z,4.90
2023-03-03T01:51:02.505Z,4.85
2023-03-03T01:53:36.773Z,4.81
2023-03-03T01:56:07.973Z,4.79
2023-03-03T01:58:37.632Z,4.75
2023-03-03T02:01:09.439Z,4.72
2023-03-03T02:03:36.100Z,4.66
2023-03-03T02:06:09.994Z,4.71
2023-03-03T02:08:51.366Z,4.70
2023-03-03T02:11:19.403Z,4.64
2023-03-03T02:13:45.838Z,4.62
2023-03-03T02:16:12.541Z,4.63
2023-03-03T02:18:39.219Z,4.62
2023-03-03T02:21:14.106Z,4.65
2023-03-03T02:24:03.364Z,4.71
2023-03-03T02:26:32.622Z,4.59
2023-03-03T02:28:59.113Z,4.57
2023-03-03T02:31:28.141Z,4.57
2023-03-03T02:33:55.972Z,4.54
2023-03-03T02:36:23.651Z,4.56
2023-03-03T02:39:03.053Z,4.60
2023-03-03T02:41:33.879Z,4.52
2023-03-03T02:44:00.405Z,4.50
2023-03-03T02:46:28.886Z,4.53
2023-03-03T02:48:55.335Z,4.50
2023-03-03T02:51:21.817Z,4.52
2023-03-03T02:53:48.275Z,4.51
2023-03-03T02:56:14.812Z,4.51
2023-03-03T02:58:41.346Z,4.51
2023-03-03T03:01:08.200Z,4.51
2023-03-03T03:03:34.706Z,4.75
2023-03-03T03:06:01.163Z,4.54
2023-03-03T03:08:27.756Z,4.53
2023-03-03T03:10:54.202Z,4.52
2023-03-03T03:13:20.723Z,4.48
2023-03-03T03:15:47.233Z,4.45
2023-03-03T03:18:14.706Z,4.44
2023-03-03T03:20:41.747Z,4.41
2023-03-03T03:23:09.864Z,4.39
2023-03-03T03:25:42.760Z,4.37
2023-03-03T03:28:09.308Z,4.37
2023-03-03T03:30:36.168Z,4.36
2023-03-03T03:33:02.957Z,4.57
2023-03-03T03:35:29.452Z,4.35
2023-03-03T03:37:56.025Z,4.35
2023-03-03T03:40:22.507Z,4.33
2023-03-03T03:42:48.984Z,4.31
2023-03-03T03:45:15.583Z,4.32
2023-03-03T03:47:42.685Z,4.31
2023-03-03T03:50:10.281Z,4.30
2023-03-03T03:52:36.834Z,4.30
2023-03-03T03:55:04.246Z,4.29
2023-03-03T03:57:30.848Z,4.30
2023-03-03T03:59:57.738Z,4.34
2023-03-03T04:02:24.285Z,4.31
2023-03-03T04:04:50.975Z,4.35
2023-03-03T04:07:17.589Z,4.35
2023-03-03T04:09:44.054Z,4.36
2023-03-03T04:12:10.836Z,4.37
2023-03-03T04:17:25.245Z,4.36
2023-03-03T04:19:54.736Z,4.39
2023-03-03T04:22:21.352Z,4.36
2023-03-03T04:24:48.765Z,4.38
2023-03-03T04:27:15.709Z,4.39
2023-03-03T04:29:42.472Z,4.38
2023-03-03T04:32:09.427Z,4.40
2023-03-03T04:34:36.076Z,4.40
2023-03-03T04:37:03.271Z,4.39
2023-03-03T04:39:29.981Z,4.39
2023-03-03T04:41:56.528Z,4.40
2023-03-03T04:44:23.077Z,4.41
2023-03-03T04:46:49.704Z,4.41
2023-03-03T04:49:16.326Z,4.41
2023-03-03T04:51:42.824Z,4.41
2023-03-03T04:54:09.516Z,4.40
2023-03-03T04:56:36.073Z,4.40
2023-03-03T04:59:02.681Z,4.38
2023-03-03T05:01:29.394Z,4.40
2023-03-03T05:03:56.005Z,4.39
2023-03-03T05:06:22.525Z,4.40
2023-03-03T05:08:49.093Z,4.40
2023-03-03T05:11:15.687Z,4.40
2023-03-03T05:13:42.307Z,4.40
2023-03-03T05:16:09.154Z,4.39
2023-03-03T05:18:35.677Z,4.60
2023-03-03T05:21:02.767Z,4.39
2023-03-03T05:23:30.062Z,4.40
2023-03-03T05:25:56.904Z,4.51
2023-03-03T05:28:23.389Z,4.91
2023-03-03T05:30:49.981Z,5.15
2023-03-03T05:33:17.624Z,5.56
2023-03-03T05:35:44.748Z,6.00
2023-03-03T05:38:11.827Z,6.36
2023-03-03T05:40:39.008Z,6.62
2023-03-03T05:43:05.630Z,6.81
2023-03-03T05:45:32.672Z,6.92
2023-03-03T05:47:59.153Z,6.97
2023-03-03T05:50:25.719Z,6.97
2023-03-03T05:52:52.704Z,6.93
2023-03-03T05:55:19.657Z,6.84
2023-03-03T05:57:46.232Z,6.76
2023-03-03T06:00:13.912Z,6.67
2023-03-03T06:02:41.931Z,6.63
2023-03-03T06:05:09.625Z,6.68
2023-03-03T06:07:36.561Z,6.76
2023-03-03T06:10:04.523Z,6.88
2023-03-03T06:12:31.141Z,7.05
2023-03-03T06:14:57.740Z,7.25
2023-03-03T06:17:24.323Z,7.45
2023-03-03T06:19:50.886Z,7.65
2023-03-03T06:22:17.490Z,7.78
2023-03-03T06:24:44.027Z,7.83
2023-03-03T06:27:10.913Z,7.83
2023-03-03T06:29:37.307Z,8.04
2023-03-03T06:32:04.166Z,7.73
2023-03-03T06:34:30.950Z,7.61
2023-03-03T06:36:57.382Z,7.78
2023-03-03T06:39:23.914Z,7.41
2023-03-03T06:41:50.420Z,7.26
2023-03-03T06:44:17.316Z,7.14
2023-03-03T06:46:43.782Z,7.31
2023-03-03T06:49:10.315Z,6.93
2023-03-03T06:51:40.042Z,6.84
2023-03-03T06:54:18.686Z,6.76
2023-03-03T06:56:46.520Z,6.60
2023-03-03T06:59:16.659Z,6.53
2023-03-03T07:01:44.464Z,6.45
2023-03-03T07:04:29.080Z,6.45
2023-03-03T07:06:56.975Z,6.32
2023-03-03T07:09:26.515Z,6.29
2023-03-03T07:12:01.315Z,6.22
2023-03-03T07:14:30.413Z,6.18
2023-03-03T07:17:00.286Z,6.12
2023-03-03T07:19:45.668Z,6.17
2023-03-03T07:22:24.523Z,6.10
2023-03-03T07:24:54.536Z,6.03
2023-03-03T07:27:29.161Z,6.00
2023-03-03T07:30:18.138Z,6.02
2023-03-03T07:32:46.947Z,5.94
2023-03-03T07:35:41.571Z,6.01
2023-03-03T07:38:41.469Z,5.97
2023-03-03T07:41:27.572Z,5.95
2023-03-03T07:44:11.247Z,5.90
2023-03-03T07:46:51.547Z,5.87
2023-03-03T07:49:35.789Z,5.86
2023-03-03T07:52:17.780Z,5.77
2023-03-03T07:54:46.018Z,5.79
2023-03-03T07:57:27.227Z,5.83
2023-03-03T08:00:01.484Z,5.80
2023-03-03T08:02:37.861Z,5.81
2023-03-03T08:05:32.217Z,5.85
2023-03-03T08:08:19.778Z,5.77
2023-03-03T08:10:54.681Z,5.77
2023-03-03T08:13:42.631Z,5.71
2023-03-03T08:16:09.328Z,5.70
2023-03-03T08:18:38.844Z,5.72
2023-03-03T08:21:11.345Z,5.66
2023-03-03T08:23:37.934Z,5.67
2023-03-03T08:26:04.779Z,5.68
2023-03-03T08:28:31.219Z,5.90
2023-03-03T08:31:12.998Z,5.70
2023-03-03T08:33:44.881Z,5.68
2023-03-03T08:36:12.424Z,5.66
2023-03-03T08:38:39.823Z,5.64
2023-03-03T08:41:06.804Z,5.64
2023-03-03T08:43:33.784Z,5.62
2023-03-03T08:46:05.481Z,5.65
2023-03-03T08:48:33.153Z,5.62
2023-03-03T08:50:59.820Z,5.60
2023-03-03T08:53:26.778Z,5.61
2023-03-03T08:55:53.304Z,5.60
2023-03-03T08:58:33.640Z,5.64
2023-03-03T09:01:01.607Z,5.63
2023-03-03T09:03:28.318Z,5.65
2023-03-03T09:05:54.912Z,5.68
2023-03-03T09:08:21.439Z,5.70
2023-03-03T09:10:48.016Z,5.73
2023-03-03T09:13:17.038Z,5.77
2023-03-03T09:15:44.172Z,5.78
2023-03-03T09:18:44.163Z,5.95
2023-03-03T09:21:26.945Z,5.93
2023-03-03T09:23:56.673Z,5.90
2023-03-03T09:26:30.248Z,5.91
2023-03-03T09:29:15.144Z,6.04
2023-03-03T09:31:53.186Z,6.03
2023-03-03T09:34:23.637Z,6.01
2023-03-03T09:36:52.856Z,6.01
2023-03-03T09:39:26.919Z,6.05
2023-03-03T09:41:56.211Z,6.07
2023-03-03T09:44:42.114Z,6.16
2023-03-03T09:47:26.710Z,6.16
2023-03-03T09:50:16.802Z,6.15
2023-03-03T09:53:08.253Z,6.16
2023-03-03T09:55:56.517Z,6.16
2023-03-03T09:58:36.462Z,6.22
2023-03-03T10:01:27.734Z,6.18
2023-03-03T10:04:16.387Z,6.17
2023-03-03T10:07:00.990Z,6.20
2023-03-03T10:09:54.770Z,6.19
2023-03-03T10:12:28.954Z,6.15
2023-03-03T10:15:03.981Z,6.12
2023-03-03T10:17:53.644Z,6.23
2023-03-03T10:20:52.749Z,6.27
2023-03-03T10:23:23.462Z,6.17
2023-03-03T10:25:56.058Z,6.19
2023-03-03T10:28:50.273Z,6.31
2023-03-03T10:31:48.605Z,6.33
2023-03-03T10:34:43.114Z,6.34
2023-03-03T10:37:35.713Z,6.39
2023-03-03T10:40:33.143Z,6.33
2023-03-03T10:43:06.561Z,6.31
2023-03-03T10:45:54.823Z,6.36
2023-03-03T10:48:30.466Z,6.38
2023-03-03T10:51:08.463Z,6.39
2023-03-03T10:53:46.348Z,6.41
2023-03-03T10:56:52.226Z,6.45
2023-03-03T10:59:35.695Z,6.51
2023-03-03T11:02:28.966Z,6.51
2023-03-03T11:05:20.440Z,6.55
2023-03-03T11:07:56.398Z,6.56
2023-03-03T11:10:29.208Z,6.54
2023-03-03T11:13:09.286Z,6.58
2023-03-03T11:15:41.864Z,6.65
2023-03-03T11:18:25.738Z,6.71
2023-03-03T11:21:01.152Z,6.70
2023-03-03T11:23:39.714Z,6.76
2023-03-03T11:26:18.557Z,6.79
2023-03-03T11:29:11.605Z,6.79
2023-03-03T11:31:55.892Z,6.85
2023-03-03T11:34:45.362Z,6.92
2023-03-03T11:37:38.792Z,6.89
2023-03-03T11:40:16.427Z,6.90
2023-03-03T11:43:36.768Z,6.97
2023-03-03T11:46:56.365Z,6.98
2023-03-03T11:49:38.796Z,6.97
2023-03-03T11:52:11.112Z,6.91
2023-03-03T11:55:05.020Z,6.94
2023-03-03T11:57:44.469Z,6.92
2023-03-03T12:00:20.531Z,6.90
2023-03-03T12:03:22.106Z,6.92
2023-03-03T12:05:54.767Z,6.88
2023-03-03T12:08:32.403Z,6.90
2023-03-03T12:11:41.852Z,6.95
2023-03-03T12:14:11.015Z,6.88
2023-03-03T12:17:26.133Z,6.96
2023-03-03T12:19:55.632Z,6.96
2023-03-03T12:22:39.587Z,7.02
2023-03-03T12:25:30.263Z,7.05
2023-03-03T12:28:20.616Z,7.07
2023-03-03T12:31:38.465Z,7.16
2023-03-03T12:34:15.838Z,7.10
2023-03-03T12:36:54.464Z,7.29
2023-03-03T12:39:35.334Z,7.18
2023-03-03T12:42:39.689Z,7.20
2023-03-03T12:45:24.488Z,7.16
2023-03-03T12:47:58.758Z,7.14
2023-03-03T12:50:51.506Z,7.18
2023-03-03T12:53:24.277Z,7.21
2023-03-03T12:56:01.661Z,7.20
2023-03-03T12:58:48.098Z,7.27
2023-03-03T13:01:33.517Z,7.30
2023-03-03T13:04:06.052Z,7.25
2023-03-03T13:06:42.916Z,7.23
2023-03-03T13:09:31.452Z,7.30
2023-03-03T13:12:12.016Z,7.30
2023-03-03T13:14:48.248Z,7.26
2023-03-03T13:17:36.514Z,7.32
2023-03-03T13:20:17.400Z,7.26
2023-03-03T13:22:51.032Z,7.25
2023-03-03T13:25:35.727Z,7.29
2023-03-03T13:28:18.248Z,7.32
2023-03-03T13:30:49.791Z,7.29
2023-03-03T13:33:32.433Z,7.36
2023-03-03T13:35:58.848Z,7.29
2023-03-03T13:38:32.470Z,7.35
2023-03-03T13:41:22.283Z,7.43
2023-03-03T13:43:57.652Z,7.35
2023-03-03T13:47:06.823Z,7.46
2023-03-03T13:49:47.910Z,7.60
2023-03-03T13:52:43.702Z,7.50
2023-03-03T13:55:21.764Z,7.42
2023-03-03T13:58:00.552Z,7.41
2023-03-03T14:00:48.307Z,7.39
2023-03-03T14:03:34.241Z,7.39
2023-03-03T14:06:09.163Z,7.32
2023-03-03T14:08:44.829Z,7.24
2023-03-03T14:11:17.704Z,7.24
2023-03-03T14:14:02.848Z,7.26
2023-03-03T14:16:41.411Z,7.21
2023-03-03T14:19:36.727Z,7.22
2023-03-03T14:22:16.509Z,7.18
2023-03-03T14:25:03.582Z,7.20
2023-03-03T14:28:08.470Z,7.23
2023-03-03T14:30:39.352Z,7.10
2023-03-03T14:33:21.560Z,7.12
2023-03-03T14:36:03.908Z,7.12
2023-03-03T14:38:33.398Z,7.06
2023-03-03T14:41:41.810Z,7.16
2023-03-03T14:44:28.990Z,7.16
2023-03-03T14:47:10.455Z,7.16
2023-03-03T14:49:39.390Z,7.08
2023-03-03T14:52:21.175Z,7.17
2023-03-03T14:55:00.434Z,7.18
2023-03-03T14:57:37.481Z,7.21
2023-03-03T15:00:13.511Z,7.24
2023-03-03T15:02:52.153Z,7.30
2023-03-03T15:05:22.125Z,7.28
2023-03-03T15:07:58.005Z,7.30
2023-03-03T15:10:35.914Z,7.35
2023-03-03T15:13:23.680Z,7.43
2023-03-03T15:15:59.243Z,7.40
2023-03-03T15:18:32.695Z,7.41
2023-03-03T15:21:09.394Z,7.44
2023-03-03T15:23:56.304Z,7.49
2023-03-03T15:26:47.293Z,7.52
2023-03-03T15:29:35.213Z,7.53
2023-03-03T15:32:07.671Z,7.67
2023-03-03T15:34:43.264Z,7.47
2023-03-03T15:37:31.025Z,7.53
2023-03-03T15:40:34.754Z,7.55
2023-03-03T15:43:10.454Z,7.51
2023-03-03T15:45:50.184Z,7.53
2023-03-03T15:48:16.552Z,7.47
2023-03-03T15:50:56.916Z,7.56
2023-03-03T15:53:42.230Z,7.60
2023-03-03T15:56:28.841Z,7.58
2023-03-03T15:59:07.178Z,7.53
2023-03-03T16:01:35.501Z,7.56
2023-03-03T16:04:25.708Z,7.67
2023-03-03T16:07:01.318Z,7.63
2023-03-03T16:09:30.881Z,7.65
2023-03-03T16:11:57.270Z,7.64
2023-03-03T16:14:38.880Z,7.74
2023-03-03T16:17:44.153Z,7.79
2023-03-03T16:20:35.155Z,7.75
2023-03-03T16:23:39.588Z,7.81
2023-03-03T16:26:30.148Z,7.78
2023-03-03T16:29:28.177Z,7.83
2023-03-03T16:32:15.756Z,7.82
2023-03-03T16:34:57.911Z,7.80
2023-03-03T16:37:43.535Z,7.79
2023-03-03T16:40:49.798Z,7.80
2023-03-03T16:43:37.150Z,7.81
2023-03-03T16:46:37.386Z,7.82
2023-03-03T16:49:17.582Z,7.73
2023-03-03T16:51:59.686Z,7.82
2023-03-03T16:54:39.666Z,7.76
2023-03-03T16:57:33.014Z,7.77
2023-03-03T17:00:05.691Z,7.71
2023-03-03T17:02:38.393Z,7.74
2023-03-03T17:05:20.408Z,7.72
2023-03-03T17:08:15.649Z,7.72
2023-03-03T17:10:45.842Z,7.67
2023-03-03T17:13:21.582Z,7.60
2023-03-03T17:16:17.671Z,7.66
2023-03-03T17:19:15.990Z,7.57
2023-03-03T17:22:09.357Z,7.61
2023-03-03T17:25:02.291Z,7.59
2023-03-03T17:28:06.463Z,7.56
2023-03-03T22:15:20.059Z,7.11
2023-03-03T22:17:46.658Z,7.09
2023-03-03T22:20:15.412Z,7.10
2023-03-03T22:22:42.654Z,7.09
2023-03-03T22:25:10.217Z,7.10
2023-03-03T22:27:36.778Z,7.12
2023-03-03T22:30:03.637Z,7.14
2023-03-03T22:32:30.204Z,7.38
2023-03-03T22:34:56.849Z,7.19
2023-03-03T22:37:23.446Z,7.19
2023-03-03T22:39:50.038Z,7.20
2023-03-03T22:42:16.851Z,7.18
2023-03-03T22:44:45.811Z,7.44
2023-03-03T22:47:12.556Z,7.23
2023-03-03T22:49:39.153Z,7.23
2023-03-03T22:52:05.731Z,7.22
2023-03-03T22:54:32.276Z,7.23
2023-03-03T22:56:58.862Z,7.24
2023-03-03T22:59:25.477Z,7.24
2023-03-03T23:01:52.037Z,7.25
2023-03-03T23:04:18.658Z,7.26
2023-03-03T23:06:45.706Z,7.26
2023-03-03T23:09:13.740Z,7.25
2023-03-03T23:12:05.207Z,7.37
2023-03-03T23:14:31.934Z,7.27
2023-03-03T23:16:58.535Z,7.28
2023-03-03T23:19:25.118Z,7.29
2023-03-03T23:21:51.604Z,7.30
2023-03-03T23:24:18.171Z,7.29
2023-03-03T23:26:44.780Z,7.30
2023-03-03T23:29:11.319Z,7.30
2023-03-03T23:31:37.988Z,7.28
2023-03-03T23:34:04.937Z,7.29
2023-03-03T23:36:31.431Z,7.54
2023-03-03T23:38:57.997Z,7.31
2023-03-03T23:41:24.536Z,7.30
2023-03-03T23:43:51.105Z,7.29
2023-03-03T23:46:17.763Z,7.27
2023-03-03T23:48:44.385Z,7.27
2023-03-03T23:51:10.975Z,7.27
2023-03-03T23:53:37.515Z,7.26
2023-03-03T23:56:04.320Z,7.26
2023-03-03T23:58:30.929Z,7.51
